sensor_id;sensor_type;location;lat;lon;timestamp;P1;durP1;ratioP1;P2;durP2;ratioP2
63651;SDS011;49801;37.536;-122.304;2023-01-25T00:00:16;1.80;;;1.10;;
63651;SDS011;49801;37.536;-122.304;2023-01-25T00:00:43;2.00;;;0.90;;
63651;SDS011;49801;37.536;-122.304;2023-01-25T00:01:09;2.40;;;1.17;;
63651;SDS011;49801;37.536;-122.304;2023-01-25T00:01:35;1.95;;;1.30;;
63651;SDS011;49801;37.536;-122.304;2023-01-25T00:02:01;3.30;;;0.90;;
63651;SDS011;49801;37.536;-122.304;2023-01-25T00:02:28;2.00;;;1.20;;
63651;SDS011;49801;37.536;-122.304;2023-01-25T00:02:54;1.70;;;1.27;;
63651;SDS011;49801;37.536;-122.304;2023-01-25T00:03:20;2.90;;;1.13;;
63651;SDS011;49801;37.536;-122.304;2023-01-25T00:03:46;3.03;;;1.20;;
63651;SDS011;49801;37.536;-122.304;2023-01-25T00:04:12;5.05;;;1.50;;
63651;SDS011;49801;37.536;-122.304;2023-01-25T00:04:38;2.38;;;1.10;;
63651;SDS011;49801;37.536;-122.304;2023-01-25T00:05:05;2.47;;;1.08;;
63651;SDS011;49801;37.536;-122.304;2023-01-25T00:05:31;1.67;;;1.08;;
63651;SDS011;49801;37.536;-122.304;2023-01-25T00:05:58;1.80;;;1.10;;
63651;SDS011;49801;37.536;-122.304;2023-01-25T00:06:25;1.65;;;1.00;;
63651;SDS011;49801;37.536;-122.304;2023-01-25T00:06:52;2.38;;;1.08;;
63651;SDS011;49801;37.536;-122.304;2023-01-25T00:07:18;1.55;;;0.90;;
63651;SDS011;49801;37.536;-122.304;2023-01-25T00:07:44;2.20;;;1.10;;
63651;SDS011;49801;37.536;-122.304;2023-01-25T00:08:11;1.42;;;0.90;;
63651;SDS011;49801;37.536;-122.304;2023-01-25T00:08:37;3.92;;;1.17;;
63651;SDS011;49801;37.536;-122.304;2023-01-25T00:09:03;2.10;;;0.95;;
63651;SDS011;49801;37.536;-122.304;2023-01-25T00:09:29;2.17;;;1.00;;
63651;SDS011;49801;37.536;-122.304;2023-01-25T00:09:55;3.10;;;0.90;;
63651;SDS011;49801;37.536;-122.304;2023-01-25T00:10:22;2.05;;;1.20;;
63651;SDS011;49801;37.536;-122.304;2023-01-25T00:10:50;6.07;;;1.45;;
63651;SDS011;49801;37.536;-122.304;2023-01-25T00:11:16;3.78;;;1.15;;
63651;SDS011;49801;37.536;-122.304;2023-01-25T00:11:44;2.00;;;0.98;;
63651;SDS011;49801;37.536;-122.304;2023-01-25T00:12:10;5.32;;;1.27;;
63651;SDS011;49801;37.536;-122.304;2023-01-25T00:12:37;3.47;;;1.58;;
63651;SDS011;49801;37.536;-122.304;2023-01-25T00:13:03;8.02;;;1.23;;
63651;SDS011;49801;37.536;-122.304;2023-01-25T00:13:29;2.17;;;1.17;;
63651;SDS011;49801;37.536;-122.304;2023-01-25T00:13:55;1.73;;;1.00;;
63651;SDS011;49801;37.536;-122.304;2023-01-25T00:14:21;2.33;;;1.33;;
63651;SDS011;49801;37.536;-122.304;2023-01-25T00:14:48;2.33;;;1.40;;
63651;SDS011;49801;37.536;-122.304;2023-01-25T00:15:14;2.35;;;1.40;;
63651;SDS011;49801;37.536;-122.304;2023-01-25T00:15:40;2.75;;;1.35;;
63651;SDS011;49801;37.536;-122.304;2023-01-25T00:16:07;5.78;;;1.50;;
63651;SDS011;49801;37.536;-122.304;2023-01-25T00:16:33;2.70;;;1.42;;
63651;SDS011;49801;37.536;-122.304;2023-01-25T00:17:00;2.75;;;1.20;;
63651;SDS011;49801;37.536;-122.304;2023-01-25T00:17:26;3.33;;;1.17;;
63651;SDS011;49801;37.536;-122.304;2023-01-25T00:17:52;4.80;;;1.52;;
63651;SDS011;49801;37.536;-122.304;2023-01-25T00:18:18;2.08;;;1.20;;
63651;SDS011;49801;37.536;-122.304;2023-01-25T00:18:45;2.15;;;1.25;;
63651;SDS011;49801;37.536;-122.304;2023-01-25T00:19:12;3.78;;;1.27;;
63651;SDS011;49801;37.536;-122.304;2023-01-25T00:19:38;1.70;;;1.05;;
63651;SDS011;49801;37.536;-122.304;2023-01-25T00:20:05;2.85;;;1.40;;
63651;SDS011;49801;37.536;-122.304;2023-01-25T00:20:31;2.58;;;1.10;;
63651;SDS011;49801;37.536;-122.304;2023-01-25T00:20:57;2.88;;;1.40;;
63651;SDS011;49801;37.536;-122.304;2023-01-25T00:21:24;2.45;;;1.20;;
63651;SDS011;49801;37.536;-122.304;2023-01-25T00:21:51;1.42;;;0.88;;
63651;SDS011;49801;37.536;-122.304;2023-01-25T00:22:17;7.00;;;1.38;;
63651;SDS011;49801;37.536;-122.304;2023-01-25T00:22:43;1.45;;;1.05;;
63651;SDS011;49801;37.536;-122.304;2023-01-25T00:23:09;2.72;;;1.20;;
63651;SDS011;49801;37.536;-122.304;2023-01-25T00:23:36;2.40;;;1.33;;
63651;SDS011;49801;37.536;-122.304;2023-01-25T00:24:02;3.05;;;1.67;;
63651;SDS011;49801;37.536;-122.304;2023-01-25T00:24:29;3.75;;;1.67;;
63651;SDS011;49801;37.536;-122.304;2023-01-25T00:24:55;1.83;;;1.10;;
63651;SDS011;49801;37.536;-122.304;2023-01-25T00:25:21;2.00;;;1.10;;
63651;SDS011;49801;37.536;-122.304;2023-01-25T00:25:47;2.63;;;1.42;;
63651;SDS011;49801;37.536;-122.304;2023-01-25T00:26:14;3.25;;;1.20;;
63651;SDS011;49801;37.536;-122.304;2023-01-25T00:26:41;1.90;;;1.10;;
63651;SDS011;49801;37.536;-122.304;2023-01-25T00:27:10;8.23;;;1.42;;
63651;SDS011;49801;37.536;-122.304;2023-01-25T00:27:37;2.03;;;1.17;;
63651;SDS011;49801;37.536;-122.304;2023-01-25T00:28:03;2.58;;;1.27;;
63651;SDS011;49801;37.536;-122.304;2023-01-25T00:28:29;1.73;;;0.90;;
63651;SDS011;49801;37.536;-122.304;2023-01-25T00:28:55;3.17;;;1.38;;
63651;SDS011;49801;37.536;-122.304;2023-01-25T00:29:21;2.85;;;1.13;;
63651;SDS011;49801;37.536;-122.304;2023-01-25T00:29:48;1.25;;;0.70;;
63651;SDS011;49801;37.536;-122.304;2023-01-25T00:30:14;2.40;;;1.27;;
63651;SDS011;49801;37.536;-122.304;2023-01-25T00:30:40;3.67;;;1.50;;
63651;SDS011;49801;37.536;-122.304;2023-01-25T00:31:08;2.63;;;1.20;;
63651;SDS011;49801;37.536;-122.304;2023-01-25T00:31:45;0.80;;;0.80;;
63651;SDS011;49801;37.536;-122.304;2023-01-25T00:32:40;3.42;;;1.10;;
63651;SDS011;49801;37.536;-122.304;2023-01-25T00:33:54;3.00;;;1.10;;
63651;SDS011;49801;37.536;-122.304;2023-01-25T00:34:51;1.02;;;0.82;;
63651;SDS011;49801;37.536;-122.304;2023-01-25T00:35:17;1.80;;;0.80;;
63651;SDS011;49801;37.536;-122.304;2023-01-25T00:35:44;1.42;;;1.20;;
63651;SDS011;49801;37.536;-122.304;2023-01-25T00:36:45;2.30;;;1.30;;
63651;SDS011;49801;37.536;-122.304;2023-01-25T00:37:46;2.60;;;1.05;;
63651;SDS011;49801;37.536;-122.304;2023-01-25T00:38:33;1.65;;;0.80;;
63651;SDS011;49801;37.536;-122.304;2023-01-25T00:39:00;2.22;;;0.95;;
63651;SDS011;49801;37.536;-122.304;2023-01-25T00:39:26;1.42;;;0.77;;
63651;SDS011;49801;37.536;-122.304;2023-01-25T00:39:52;1.40;;;1.10;;
63651;SDS011;49801;37.536;-122.304;2023-01-25T00:40:18;1.80;;;1.00;;
63651;SDS011;49801;37.536;-122.304;2023-01-25T00:40:44;4.43;;;1.25;;
63651;SDS011;49801;37.536;-122.304;2023-01-25T00:41:10;3.33;;;0.93;;
63651;SDS011;49801;37.536;-122.304;2023-01-25T00:41:36;1.77;;;1.10;;
63651;SDS011;49801;37.536;-122.304;2023-01-25T00:42:03;5.07;;;0.77;;
63651;SDS011;49801;37.536;-122.304;2023-01-25T00:42:29;2.42;;;1.17;;
63651;SDS011;49801;37.536;-122.304;2023-01-25T00:42:55;1.58;;;1.05;;
63651;SDS011;49801;37.536;-122.304;2023-01-25T00:43:25;1.83;;;1.17;;
63651;SDS011;49801;37.536;-122.304;2023-01-25T00:43:51;1.52;;;1.17;;
63651;SDS011;49801;37.536;-122.304;2023-01-25T00:44:17;1.83;;;1.00;;
63651;SDS011;49801;37.536;-122.304;2023-01-25T00:44:44;1.58;;;0.90;;
63651;SDS011;49801;37.536;-122.304;2023-01-25T00:45:11;2.22;;;1.20;;
63651;SDS011;49801;37.536;-122.304;2023-01-25T00:45:37;3.22;;;1.00;;
63651;SDS011;49801;37.536;-122.304;2023-01-25T00:46:04;1.23;;;0.70;;
63651;SDS011;49801;37.536;-122.304;2023-01-25T00:46:30;1.40;;;1.02;;
63651;SDS011;49801;37.536;-122.304;2023-01-25T00:46:56;1.60;;;1.00;;
63651;SDS011;49801;37.536;-122.304;2023-01-25T00:47:22;1.63;;;0.60;;
63651;SDS011;49801;37.536;-122.304;2023-01-25T00:47:49;2.92;;;0.70;;
63651;SDS011;49801;37.536;-122.304;2023-01-25T00:48:19;2.15;;;0.85;;
63651;SDS011;49801;37.536;-122.304;2023-01-25T00:48:45;1.85;;;0.98;;
63651;SDS011;49801;37.536;-122.304;2023-01-25T00:49:21;1.30;;;0.80;;
63651;SDS011;49801;37.536;-122.304;2023-01-25T00:49:49;3.78;;;1.10;;
63651;SDS011;49801;37.536;-122.304;2023-01-25T00:50:15;1.13;;;0.70;;
63651;SDS011;49801;37.536;-122.304;2023-01-25T00:50:41;3.53;;;0.88;;
63651;SDS011;49801;37.536;-122.304;2023-01-25T00:51:08;2.75;;;1.30;;
63651;SDS011;49801;37.536;-122.304;2023-01-25T00:51:34;2.40;;;1.00;;
63651;SDS011;49801;37.536;-122.304;2023-01-25T00:52:00;5.28;;;0.98;;
63651;SDS011;49801;37.536;-122.304;2023-01-25T00:52:27;2.10;;;0.90;;
63651;SDS011;49801;37.536;-122.304;2023-01-25T00:52:53;3.70;;;1.08;;
63651;SDS011;49801;37.536;-122.304;2023-01-25T00:53:19;3.15;;;1.02;;
63651;SDS011;49801;37.536;-122.304;2023-01-25T00:53:45;1.58;;;0.90;;
63651;SDS011;49801;37.536;-122.304;2023-01-25T00:54:11;1.58;;;0.77;;
63651;SDS011;49801;37.536;-122.304;2023-01-25T00:54:37;3.10;;;1.13;;
63651;SDS011;49801;37.536;-122.304;2023-01-25T00:55:04;2.22;;;1.02;;
63651;SDS011;49801;37.536;-122.304;2023-01-25T00:55:30;2.42;;;0.90;;
63651;SDS011;49801;37.536;-122.304;2023-01-25T00:55:56;2.15;;;1.15;;
63651;SDS011;49801;37.536;-122.304;2023-01-25T00:56:23;4.53;;;1.20;;
63651;SDS011;49801;37.536;-122.304;2023-01-25T00:56:49;2.00;;;0.95;;
63651;SDS011;49801;37.536;-122.304;2023-01-25T00:57:21;4.88;;;0.85;;
63651;SDS011;49801;37.536;-122.304;2023-01-25T00:57:47;2.05;;;0.77;;
63651;SDS011;49801;37.536;-122.304;2023-01-25T00:58:13;1.77;;;0.90;;
63651;SDS011;49801;37.536;-122.304;2023-01-25T00:58:39;1.55;;;0.93;;
63651;SDS011;49801;37.536;-122.304;2023-01-25T00:59:06;1.35;;;1.10;;
63651;SDS011;49801;37.536;-122.304;2023-01-25T00:59:32;1.30;;;0.82;;
63651;SDS011;49801;37.536;-122.304;2023-01-25T00:59:59;1.50;;;0.82;;
63651;SDS011;49801;37.536;-122.304;2023-01-25T01:00:25;1.10;;;1.00;;
63651;SDS011;49801;37.536;-122.304;2023-01-25T01:00:52;1.58;;;0.85;;
63651;SDS011;49801;37.536;-122.304;2023-01-25T01:01:19;2.63;;;0.98;;
63651;SDS011;49801;37.536;-122.304;2023-01-25T01:01:45;1.88;;;0.73;;
63651;SDS011;49801;37.536;-122.304;2023-01-25T01:02:11;5.32;;;1.10;;
63651;SDS011;49801;37.536;-122.304;2023-01-25T01:02:38;1.20;;;0.80;;
63651;SDS011;49801;37.536;-122.304;2023-01-25T01:03:04;1.27;;;0.90;;
63651;SDS011;49801;37.536;-122.304;2023-01-25T01:03:31;0.80;;;0.68;;
63651;SDS011;49801;37.536;-122.304;2023-01-25T01:03:57;3.72;;;1.15;;
63651;SDS011;49801;37.536;-122.304;2023-01-25T01:04:23;2.38;;;1.08;;
63651;SDS011;49801;37.536;-122.304;2023-01-25T01:04:49;2.45;;;0.95;;
63651;SDS011;49801;37.536;-122.304;2023-01-25T01:05:20;1.30;;;0.80;;
63651;SDS011;49801;37.536;-122.304;2023-01-25T01:05:46;1.80;;;0.90;;
63651;SDS011;49801;37.536;-122.304;2023-01-25T01:06:13;3.67;;;1.48;;
63651;SDS011;49801;37.536;-122.304;2023-01-25T01:06:39;1.98;;;1.10;;
63651;SDS011;49801;37.536;-122.304;2023-01-25T01:07:06;3.03;;;0.90;;
63651;SDS011;49801;37.536;-122.304;2023-01-25T01:07:32;1.63;;;0.90;;
63651;SDS011;49801;37.536;-122.304;2023-01-25T01:07:58;1.77;;;0.80;;
63651;SDS011;49801;37.536;-122.304;2023-01-25T01:08:24;1.60;;;0.93;;
63651;SDS011;49801;37.536;-122.304;2023-01-25T01:08:50;1.08;;;0.90;;
63651;SDS011;49801;37.536;-122.304;2023-01-25T01:09:17;3.53;;;0.95;;
63651;SDS011;49801;37.536;-122.304;2023-01-25T01:09:43;3.78;;;0.82;;
63651;SDS011;49801;37.536;-122.304;2023-01-25T01:10:10;0.90;;;0.70;;
63651;SDS011;49801;37.536;-122.304;2023-01-25T01:10:36;1.48;;;0.82;;
63651;SDS011;49801;37.536;-122.304;2023-01-25T01:11:03;1.88;;;0.70;;
63651;SDS011;49801;37.536;-122.304;2023-01-25T01:11:31;1.48;;;0.70;;
63651;SDS011;49801;37.536;-122.304;2023-01-25T01:11:57;1.48;;;0.85;;
63651;SDS011;49801;37.536;-122.304;2023-01-25T01:12:23;2.15;;;0.70;;
63651;SDS011;49801;37.536;-122.304;2023-01-25T01:12:50;2.65;;;1.00;;
63651;SDS011;49801;37.536;-122.304;2023-01-25T01:13:16;1.40;;;0.63;;
63651;SDS011;49801;37.536;-122.304;2023-01-25T01:13:42;0.95;;;0.70;;
63651;SDS011;49801;37.536;-122.304;2023-01-25T01:14:08;1.90;;;0.60;;
63651;SDS011;49801;37.536;-122.304;2023-01-25T01:14:34;0.98;;;0.60;;
63651;SDS011;49801;37.536;-122.304;2023-01-25T01:15:01;1.02;;;0.60;;
63651;SDS011;49801;37.536;-122.304;2023-01-25T01:15:27;1.52;;;0.80;;
63651;SDS011;49801;37.536;-122.304;2023-01-25T01:15:53;3.10;;;0.75;;
63651;SDS011;49801;37.536;-122.304;2023-01-25T01:16:20;5.18;;;0.90;;
63651;SDS011;49801;37.536;-122.304;2023-01-25T01:16:46;3.30;;;0.85;;
63651;SDS011;49801;37.536;-122.304;2023-01-25T01:17:12;1.83;;;1.10;;
63651;SDS011;49801;37.536;-122.304;2023-01-25T01:17:38;1.42;;;0.93;;
63651;SDS011;49801;37.536;-122.304;2023-01-25T01:18:05;1.60;;;0.80;;
63651;SDS011;49801;37.536;-122.304;2023-01-25T01:18:34;1.20;;;0.70;;
63651;SDS011;49801;37.536;-122.304;2023-01-25T01:19:02;0.85;;;0.68;;
63651;SDS011;49801;37.536;-122.304;2023-01-25T01:19:29;2.45;;;0.88;;
63651;SDS011;49801;37.536;-122.304;2023-01-25T01:19:56;0.95;;;0.68;;
63651;SDS011;49801;37.536;-122.304;2023-01-25T01:20:22;1.95;;;0.90;;
63651;SDS011;49801;37.536;-122.304;2023-01-25T01:20:48;1.25;;;0.80;;
63651;SDS011;49801;37.536;-122.304;2023-01-25T01:21:18;1.45;;;0.77;;
63651;SDS011;49801;37.536;-122.304;2023-01-25T01:21:45;0.65;;;0.60;;
63651;SDS011;49801;37.536;-122.304;2023-01-25T01:22:11;2.13;;;0.80;;
63651;SDS011;49801;37.536;-122.304;2023-01-25T01:22:37;2.45;;;1.00;;
63651;SDS011;49801;37.536;-122.304;2023-01-25T01:23:03;2.03;;;0.82;;
63651;SDS011;49801;37.536;-122.304;2023-01-25T01:23:29;2.85;;;1.08;;
63651;SDS011;49801;37.536;-122.304;2023-01-25T01:23:56;3.53;;;1.80;;
63651;SDS011;49801;37.536;-122.304;2023-01-25T01:24:22;4.30;;;1.75;;
63651;SDS011;49801;37.536;-122.304;2023-01-25T01:24:48;5.03;;;2.28;;
63651;SDS011;49801;37.536;-122.304;2023-01-25T01:25:15;4.88;;;2.53;;
63651;SDS011;49801;37.536;-122.304;2023-01-25T01:25:41;4.03;;;2.28;;
63651;SDS011;49801;37.536;-122.304;2023-01-25T01:26:08;4.07;;;1.88;;
63651;SDS011;49801;37.536;-122.304;2023-01-25T01:26:37;4.00;;;1.95;;
63651;SDS011;49801;37.536;-122.304;2023-01-25T01:27:03;5.00;;;2.40;;
63651;SDS011;49801;37.536;-122.304;2023-01-25T01:27:29;4.57;;;2.55;;
63651;SDS011;49801;37.536;-122.304;2023-01-25T01:27:55;3.60;;;2.25;;
63651;SDS011;49801;37.536;-122.304;2023-01-25T01:28:22;3.60;;;2.22;;
63651;SDS011;49801;37.536;-122.304;2023-01-25T01:28:48;5.22;;;2.65;;
63651;SDS011;49801;37.536;-122.304;2023-01-25T01:29:14;4.65;;;2.92;;
63651;SDS011;49801;37.536;-122.304;2023-01-25T01:29:40;6.60;;;2.90;;
63651;SDS011;49801;37.536;-122.304;2023-01-25T01:30:06;4.38;;;2.65;;
63651;SDS011;49801;37.536;-122.304;2023-01-25T01:30:33;5.90;;;2.70;;
63651;SDS011;49801;37.536;-122.304;2023-01-25T01:31:01;5.13;;;2.83;;
63651;SDS011;49801;37.536;-122.304;2023-01-25T01:31:28;5.28;;;2.80;;
63651;SDS011;49801;37.536;-122.304;2023-01-25T01:31:54;4.32;;;2.45;;
63651;SDS011;49801;37.536;-122.304;2023-01-25T01:32:20;5.60;;;2.83;;
63651;SDS011;49801;37.536;-122.304;2023-01-25T01:32:46;5.13;;;2.58;;
63651;SDS011;49801;37.536;-122.304;2023-01-25T01:33:12;5.15;;;2.47;;
63651;SDS011;49801;37.536;-122.304;2023-01-25T01:33:39;4.10;;;2.05;;
63651;SDS011;49801;37.536;-122.304;2023-01-25T01:34:05;3.85;;;1.55;;
63651;SDS011;49801;37.536;-122.304;2023-01-25T01:34:31;3.03;;;1.70;;
63651;SDS011;49801;37.536;-122.304;2023-01-25T01:34:57;4.55;;;1.60;;
63651;SDS011;49801;37.536;-122.304;2023-01-25T01:35:23;3.58;;;1.42;;
63651;SDS011;49801;37.536;-122.304;2023-01-25T01:35:50;1.60;;;1.17;;
63651;SDS011;49801;37.536;-122.304;2023-01-25T01:36:16;3.45;;;1.38;;
63651;SDS011;49801;37.536;-122.304;2023-01-25T01:36:44;3.00;;;1.50;;
63651;SDS011;49801;37.536;-122.304;2023-01-25T01:37:11;4.90;;;1.25;;
63651;SDS011;49801;37.536;-122.304;2023-01-25T01:37:39;2.30;;;1.02;;
63651;SDS011;49801;37.536;-122.304;2023-01-25T01:38:07;3.47;;;1.40;;
63651;SDS011;49801;37.536;-122.304;2023-01-25T01:38:33;2.53;;;1.48;;
63651;SDS011;49801;37.536;-122.304;2023-01-25T01:38:59;3.30;;;1.55;;
63651;SDS011;49801;37.536;-122.304;2023-01-25T01:39:25;2.78;;;1.38;;
63651;SDS011;49801;37.536;-122.304;2023-01-25T01:39:51;6.78;;;1.30;;
63651;SDS011;49801;37.536;-122.304;2023-01-25T01:40:17;4.47;;;2.05;;
63651;SDS011;49801;37.536;-122.304;2023-01-25T01:40:47;5.30;;;1.55;;
63651;SDS011;49801;37.536;-122.304;2023-01-25T01:41:14;3.97;;;1.58;;
63651;SDS011;49801;37.536;-122.304;2023-01-25T01:41:41;2.97;;;1.40;;
63651;SDS011;49801;37.536;-122.304;2023-01-25T01:42:07;4.20;;;1.17;;
63651;SDS011;49801;37.536;-122.304;2023-01-25T01:42:54;1.98;;;1.13;;
63651;SDS011;49801;37.536;-122.304;2023-01-25T01:43:23;1.65;;;0.93;;
63651;SDS011;49801;37.536;-122.304;2023-01-25T01:43:49;3.08;;;1.17;;
63651;SDS011;49801;37.536;-122.304;2023-01-25T01:44:18;1.50;;;1.05;;
63651;SDS011;49801;37.536;-122.304;2023-01-25T01:44:49;1.33;;;0.85;;
63651;SDS011;49801;37.536;-122.304;2023-01-25T01:46:21;1.23;;;0.90;;
63651;SDS011;49801;37.536;-122.304;2023-01-25T01:47:01;1.65;;;0.95;;
63651;SDS011;49801;37.536;-122.304;2023-01-25T01:47:33;2.83;;;1.20;;
63651;SDS011;49801;37.536;-122.304;2023-01-25T01:48:07;3.53;;;1.10;;
63651;SDS011;49801;37.536;-122.304;2023-01-25T01:49:50;3.00;;;0.80;;
63651;SDS011;49801;37.536;-122.304;2023-01-25T01:50:20;2.13;;;0.73;;
63651;SDS011;49801;37.536;-122.304;2023-01-25T01:50:50;2.40;;;0.70;;
63651;SDS011;49801;37.536;-122.304;2023-01-25T01:52:06;1.85;;;0.80;;
63651;SDS011;49801;37.536;-122.304;2023-01-25T01:52:40;3.15;;;1.10;;
63651;SDS011;49801;37.536;-122.304;2023-01-25T01:53:07;1.73;;;0.93;;
63651;SDS011;49801;37.536;-122.304;2023-01-25T01:53:33;2.50;;;1.02;;
63651;SDS011;49801;37.536;-122.304;2023-01-25T01:54:22;1.25;;;0.77;;
63651;SDS011;49801;37.536;-122.304;2023-01-25T01:54:52;2.13;;;0.60;;
63651;SDS011;49801;37.536;-122.304;2023-01-25T01:55:22;3.67;;;0.82;;
63651;SDS011;49801;37.536;-122.304;2023-01-25T01:55:50;1.70;;;1.00;;
63651;SDS011;49801;37.536;-122.304;2023-01-25T01:56:26;2.10;;;0.90;;
63651;SDS011;49801;37.536;-122.304;2023-01-25T01:57:04;3.38;;;0.70;;
63651;SDS011;49801;37.536;-122.304;2023-01-25T01:58:05;1.92;;;1.10;;
63651;SDS011;49801;37.536;-122.304;2023-01-25T01:58:32;2.67;;;1.02;;
63651;SDS011;49801;37.536;-122.304;2023-01-25T01:58:58;1.63;;;0.80;;
63651;SDS011;49801;37.536;-122.304;2023-01-25T01:59:27;1.40;;;0.90;;
63651;SDS011;49801;37.536;-122.304;2023-01-25T02:00:34;0.80;;;0.63;;
63651;SDS011;49801;37.536;-122.304;2023-01-25T02:01:03;5.35;;;1.50;;
63651;SDS011;49801;37.536;-122.304;2023-01-25T02:01:30;1.02;;;0.70;;
63651;SDS011;49801;37.536;-122.304;2023-01-25T02:01:56;2.67;;;0.70;;
63651;SDS011;49801;37.536;-122.304;2023-01-25T02:02:23;2.05;;;1.00;;
63651;SDS011;49801;37.536;-122.304;2023-01-25T02:02:50;1.77;;;0.85;;
63651;SDS011;49801;37.536;-122.304;2023-01-25T02:03:18;1.40;;;0.80;;
63651;SDS011;49801;37.536;-122.304;2023-01-25T02:03:45;1.35;;;0.88;;
63651;SDS011;49801;37.536;-122.304;2023-01-25T02:04:13;1.70;;;0.60;;
63651;SDS011;49801;37.536;-122.304;2023-01-25T02:04:46;3.22;;;0.80;;
63651;SDS011;49801;37.536;-122.304;2023-01-25T02:05:16;1.00;;;0.90;;
63651;SDS011;49801;37.536;-122.304;2023-01-25T02:06:23;1.38;;;0.77;;
63651;SDS011;49801;37.536;-122.304;2023-01-25T02:07:01;2.85;;;1.10;;
63651;SDS011;49801;37.536;-122.304;2023-01-25T02:07:36;2.17;;;0.80;;
63651;SDS011;49801;37.536;-122.304;2023-01-25T02:08:03;1.50;;;0.80;;
63651;SDS011;49801;37.536;-122.304;2023-01-25T02:08:32;1.20;;;0.60;;
63651;SDS011;49801;37.536;-122.304;2023-01-25T02:09:01;2.78;;;0.85;;
63651;SDS011;49801;37.536;-122.304;2023-01-25T02:09:28;4.60;;;0.85;;
63651;SDS011;49801;37.536;-122.304;2023-01-25T02:09:56;2.67;;;0.80;;
63651;SDS011;49801;37.536;-122.304;2023-01-25T02:10:24;2.10;;;1.60;;
63651;SDS011;49801;37.536;-122.304;2023-01-25T02:10:52;2.45;;;0.82;;
63651;SDS011;49801;37.536;-122.304;2023-01-25T02:11:19;2.05;;;0.82;;
63651;SDS011;49801;37.536;-122.304;2023-01-25T02:11:46;3.38;;;0.90;;
63651;SDS011;49801;37.536;-122.304;2023-01-25T02:12:13;1.58;;;0.98;;
63651;SDS011;49801;37.536;-122.304;2023-01-25T02:12:40;2.20;;;1.00;;
63651;SDS011;49801;37.536;-122.304;2023-01-25T02:13:08;1.75;;;0.93;;
63651;SDS011;49801;37.536;-122.304;2023-01-25T02:13:35;5.97;;;0.80;;
63651;SDS011;49801;37.536;-122.304;2023-01-25T02:14:02;1.38;;;0.75;;
63651;SDS011;49801;37.536;-122.304;2023-01-25T02:14:28;1.85;;;0.85;;
63651;SDS011;49801;37.536;-122.304;2023-01-25T02:14:55;1.92;;;1.05;;
63651;SDS011;49801;37.536;-122.304;2023-01-25T02:15:21;2.47;;;0.80;;
63651;SDS011;49801;37.536;-122.304;2023-01-25T02:15:51;3.00;;;0.80;;
63651;SDS011;49801;37.536;-122.304;2023-01-25T02:16:21;2.35;;;1.20;;
63651;SDS011;49801;37.536;-122.304;2023-01-25T02:16:50;1.48;;;0.85;;
63651;SDS011;49801;37.536;-122.304;2023-01-25T02:17:18;2.72;;;1.00;;
63651;SDS011;49801;37.536;-122.304;2023-01-25T02:17:51;1.77;;;1.15;;
63651;SDS011;49801;37.536;-122.304;2023-01-25T02:18:18;3.80;;;1.10;;
63651;SDS011;49801;37.536;-122.304;2023-01-25T02:18:45;1.67;;;0.75;;
63651;SDS011;49801;37.536;-122.304;2023-01-25T02:19:12;1.40;;;1.10;;
63651;SDS011;49801;37.536;-122.304;2023-01-25T02:19:52;2.15;;;0.90;;
63651;SDS011;49801;37.536;-122.304;2023-01-25T02:21:06;1.88;;;0.90;;
63651;SDS011;49801;37.536;-122.304;2023-01-25T02:21:36;2.80;;;1.10;;
63651;SDS011;49801;37.536;-122.304;2023-01-25T02:22:09;2.15;;;1.30;;
63651;SDS011;49801;37.536;-122.304;2023-01-25T02:24:03;1.77;;;0.90;;
63651;SDS011;49801;37.536;-122.304;2023-01-25T02:24:35;2.10;;;1.00;;
63651;SDS011;49801;37.536;-122.304;2023-01-25T02:25:10;1.80;;;0.90;;
63651;SDS011;49801;37.536;-122.304;2023-01-25T02:25:38;1.17;;;0.77;;
63651;SDS011;49801;37.536;-122.304;2023-01-25T02:26:05;4.13;;;1.23;;
63651;SDS011;49801;37.536;-122.304;2023-01-25T02:26:32;2.90;;;1.05;;
63651;SDS011;49801;37.536;-122.304;2023-01-25T02:26:58;2.13;;;1.00;;
63651;SDS011;49801;37.536;-122.304;2023-01-25T02:27:25;1.60;;;1.05;;
63651;SDS011;49801;37.536;-122.304;2023-01-25T02:28:13;1.73;;;1.00;;
63651;SDS011;49801;37.536;-122.304;2023-01-25T02:28:54;1.38;;;0.98;;
63651;SDS011;49801;37.536;-122.304;2023-01-25T02:29:21;3.25;;;0.80;;
63651;SDS011;49801;37.536;-122.304;2023-01-25T02:29:49;1.65;;;0.90;;
63651;SDS011;49801;37.536;-122.304;2023-01-25T02:30:16;1.08;;;0.70;;
63651;SDS011;49801;37.536;-122.304;2023-01-25T02:30:42;1.08;;;0.70;;
63651;SDS011;49801;37.536;-122.304;2023-01-25T02:31:08;1.00;;;0.68;;
63651;SDS011;49801;37.536;-122.304;2023-01-25T02:31:34;1.42;;;0.90;;
63651;SDS011;49801;37.536;-122.304;2023-01-25T02:32:01;1.60;;;1.00;;
63651;SDS011;49801;37.536;-122.304;2023-01-25T02:32:30;1.30;;;0.65;;
63651;SDS011;49801;37.536;-122.304;2023-01-25T02:32:57;1.52;;;0.95;;
63651;SDS011;49801;37.536;-122.304;2023-01-25T02:33:23;1.23;;;0.80;;
63651;SDS011;49801;37.536;-122.304;2023-01-25T02:33:51;2.72;;;1.15;;
63651;SDS011;49801;37.536;-122.304;2023-01-25T02:34:17;1.92;;;0.80;;
63651;SDS011;49801;37.536;-122.304;2023-01-25T02:34:44;1.67;;;1.05;;
63651;SDS011;49801;37.536;-122.304;2023-01-25T02:35:17;2.25;;;0.90;;
63651;SDS011;49801;37.536;-122.304;2023-01-25T02:35:48;3.67;;;0.90;;
63651;SDS011;49801;37.536;-122.304;2023-01-25T02:36:19;2.17;;;0.90;;
63651;SDS011;49801;37.536;-122.304;2023-01-25T02:36:53;3.10;;;1.10;;
63651;SDS011;49801;37.536;-122.304;2023-01-25T02:37:20;1.67;;;0.93;;
63651;SDS011;49801;37.536;-122.304;2023-01-25T02:37:46;4.63;;;0.90;;
63651;SDS011;49801;37.536;-122.304;2023-01-25T02:38:14;1.55;;;1.00;;
63651;SDS011;49801;37.536;-122.304;2023-01-25T02:38:47;4.38;;;1.23;;
63651;SDS011;49801;37.536;-122.304;2023-01-25T02:39:42;1.10;;;0.93;;
63651;SDS011;49801;37.536;-122.304;2023-01-25T02:40:09;1.52;;;1.02;;
63651;SDS011;49801;37.536;-122.304;2023-01-25T02:40:39;1.60;;;0.82;;
63651;SDS011;49801;37.536;-122.304;2023-01-25T02:41:32;3.00;;;1.05;;
63651;SDS011;49801;37.536;-122.304;2023-01-25T02:41:59;3.08;;;1.00;;
63651;SDS011;49801;37.536;-122.304;2023-01-25T02:42:28;2.92;;;0.85;;
63651;SDS011;49801;37.536;-122.304;2023-01-25T02:42:55;1.88;;;1.15;;
63651;SDS011;49801;37.536;-122.304;2023-01-25T02:43:22;3.53;;;1.08;;
63651;SDS011;49801;37.536;-122.304;2023-01-25T02:43:52;2.17;;;1.08;;
63651;SDS011;49801;37.536;-122.304;2023-01-25T02:44:20;2.38;;;0.80;;
63651;SDS011;49801;37.536;-122.304;2023-01-25T02:44:54;2.10;;;1.10;;
63651;SDS011;49801;37.536;-122.304;2023-01-25T02:45:21;2.00;;;0.70;;
63651;SDS011;49801;37.536;-122.304;2023-01-25T02:45:56;1.58;;;0.85;;
63651;SDS011;49801;37.536;-122.304;2023-01-25T02:46:28;3.63;;;0.93;;
63651;SDS011;49801;37.536;-122.304;2023-01-25T02:46:56;4.85;;;1.33;;
63651;SDS011;49801;37.536;-122.304;2023-01-25T02:47:22;2.90;;;1.00;;
63651;SDS011;49801;37.536;-122.304;2023-01-25T02:47:48;1.98;;;1.05;;
63651;SDS011;49801;37.536;-122.304;2023-01-25T02:48:15;3.05;;;0.80;;
63651;SDS011;49801;37.536;-122.304;2023-01-25T02:48:41;6.50;;;1.10;;
63651;SDS011;49801;37.536;-122.304;2023-01-25T02:49:08;1.77;;;1.10;;
63651;SDS011;49801;37.536;-122.304;2023-01-25T02:49:35;2.13;;;1.17;;
63651;SDS011;49801;37.536;-122.304;2023-01-25T02:50:02;1.13;;;0.80;;
63651;SDS011;49801;37.536;-122.304;2023-01-25T02:50:28;3.88;;;1.08;;